sensor_id;sensor_type;location;lat;lon;timestamp;pressure;altitude;pressure_sealevel;temperature;humidity
33414;BME280;60055;41.884;12.534;2024-01-15T00:00:24;100257.63;;;10.69;78.23
33414;BME280;60055;41.884;12.534;2024-01-15T00:02:49;100251.28;;;10.73;78.39
33414;BME280;60055;41.884;12.534;2024-01-15T00:05:15;100245.88;;;10.76;78.15
33414;BME280;60055;41.884;12.534;2024-01-15T00:07:41;100235.56;;;10.70;77.76
33414;BME280;60055;41.884;12.534;2024-01-15T00:10:06;100236.81;;;10.61;77.83
33414;BME280;60055;41.884;12.534;2024-01-15T00:12:32;100225.81;;;10.52;78.57
33414;BME280;60055;41.884;12.534;2024-01-15T00:14:57;100221.22;;;10.57;78.17
33414;BME280;60055;41.884;12.534;2024-01-15T00:17:23;100213.94;;;10.62;77.99
33414;BME280;60055;41.884;12.534;2024-01-15T00:19:48;100203.38;;;10.62;78.10
33414;BME280;60055;41.884;12.534;2024-01-15T00:22:14;100203.31;;;10.63;78.37
33414;BME280;60055;41.884;12.534;2024-01-15T00:24:40;100195.31;;;10.65;78.54
33414;BME280;60055;41.884;12.534;2024-01-15T00:27:05;100196.88;;;10.69;78.11
33414;BME280;60055;41.884;12.534;2024-01-15T00:29:31;100189.06;;;10.67;78.37
33414;BME280;60055;41.884;12.534;2024-01-15T00:31:56;100185.88;;;10.59;79.31
33414;BME280;60055;41.884;12.534;2024-01-15T00:34:22;100182.25;;;10.62;78.94
33414;BME280;60055;41.884;12.534;2024-01-15T00:36:47;100180.28;;;10.67;78.96
33414;BME280;60055;41.884;12.534;2024-01-15T00:39:13;100179.22;;;10.71;78.77
33414;BME280;60055;41.884;12.534;2024-01-15T00:41:39;100181.84;;;10.71;78.85
33414;BME280;60055;41.884;12.534;2024-01-15T00:44:05;100169.38;;;10.74;78.52
33414;BME280;60055;41.884;12.534;2024-01-15T00:46:30;100172.06;;;10.73;78.68
33414;BME280;60055;41.884;12.534;2024-01-15T00:48:56;100167.06;;;10.67;78.71
33414;BME280;60055;41.884;12.534;2024-01-15T00:51:21;100170.63;;;10.66;78.82
33414;BME280;60055;41.884;12.534;2024-01-15T00:53:47;100160.22;;;10.63;78.91
33414;BME280;60055;41.884;12.534;2024-01-15T00:56:13;100154.16;;;10.61;78.91
33414;BME280;60055;41.884;12.534;2024-01-15T00:58:38;100145.44;;;10.59;79.13
33414;BME280;60055;41.884;12.534;2024-01-15T01:01:04;100146.22;;;10.61;79.02
33414;BME280;60055;41.884;12.534;2024-01-15T01:03:30;100137.31;;;10.63;79.29
33414;BME280;60055;41.884;12.534;2024-01-15T01:05:55;100142.34;;;10.68;79.24
33414;BME280;60055;41.884;12.534;2024-01-15T01:08:21;100146.38;;;10.76;78.79
33414;BME280;60055;41.884;12.534;2024-01-15T01:10:46;100147.81;;;10.84;78.82
33414;BME280;60055;41.884;12.534;2024-01-15T01:13:12;100146.03;;;10.84;78.31
33414;BME280;60055;41.884;12.534;2024-01-15T01:15:37;100143.31;;;10.86;78.88
33414;BME280;60055;41.884;12.534;2024-01-15T01:18:04;100141.44;;;10.69;79.55
33414;BME280;60055;41.884;12.534;2024-01-15T01:20:32;100140.53;;;10.70;80.01
33414;BME280;60055;41.884;12.534;2024-01-15T01:22:58;100137.75;;;10.73;80.00
33414;BME280;60055;41.884;12.534;2024-01-15T01:25:23;100139.38;;;10.75;79.81
33414;BME280;60055;41.884;12.534;2024-01-15T01:27:49;100129.53;;;10.79;80.27
33414;BME280;60055;41.884;12.534;2024-01-15T01:30:15;100139.66;;;10.69;81.00
33414;BME280;60055;41.884;12.534;2024-01-15T01:32:40;100131.09;;;10.64;81.97
33414;BME280;60055;41.884;12.534;2024-01-15T01:35:06;100125.16;;;10.59;82.64
33414;BME280;60055;41.884;12.534;2024-01-15T01:37:31;100130.97;;;10.67;82.70
33414;BME280;60055;41.884;12.534;2024-01-15T01:39:58;100127.03;;;10.76;81.99
33414;BME280;60055;41.884;12.534;2024-01-15T01:42:23;100109.84;;;10.67;82.86
33414;BME280;60055;41.884;12.534;2024-01-15T01:44:49;100112.63;;;10.64;82.92
33414;BME280;60055;41.884;12.534;2024-01-15T01:47:14;100102.13;;;10.63;83.27
33414;BME280;60055;41.884;12.534;2024-01-15T01:49:40;100098.19;;;10.71;83.05
33414;BME280;60055;41.884;12.534;2024-01-15T01:52:07;100101.63;;;10.73;82.65
33414;BME280;60055;41.884;12.534;2024-01-15T01:54:34;100102.41;;;10.57;84.27
33414;BME280;60055;41.884;12.534;2024-01-15T01:57:02;100096.69;;;10.66;83.88
33414;BME280;60055;41.884;12.534;2024-01-15T01:59:29;100088.88;;;10.64;84.32
33414;BME280;60055;41.884;12.534;2024-01-15T02:01:56;100075.06;;;10.58;84.44
33414;BME280;60055;41.884;12.534;2024-01-15T02:04:23;100073.03;;;10.64;84.27
33414;BME280;60055;41.884;12.534;2024-01-15T02:06:50;100064.00;;;10.68;84.35
33414;BME280;60055;41.884;12.534;2024-01-15T02:09:15;100068.56;;;10.65;84.86
33414;BME280;60055;41.884;12.534;2024-01-15T02:11:42;100067.03;;;10.61;85.33
33414;BME280;60055;41.884;12.534;2024-01-15T02:14:09;100058.00;;;10.65;85.66
33414;BME280;60055;41.884;12.534;2024-01-15T02:16:34;100056.94;;;10.69;85.92
33414;BME280;60055;41.884;12.534;2024-01-15T02:19:00;100057.19;;;10.64;86.66
33414;BME280;60055;41.884;12.534;2024-01-15T02:21:26;100051.50;;;10.72;86.61
33414;BME280;60055;41.884;12.534;2024-01-15T02:23:56;100049.16;;;10.66;87.14
33414;BME280;60055;41.884;12.534;2024-01-15T02:26:22;100046.38;;;10.69;87.14
33414;BME280;60055;41.884;12.534;2024-01-15T02:28:48;100047.44;;;10.65;87.69
33414;BME280;60055;41.884;12.534;2024-01-15T02:31:15;100037.34;;;10.56;89.96
33414;BME280;60055;41.884;12.534;2024-01-15T02:33:42;100037.34;;;10.56;89.87
33414;BME280;60055;41.884;12.534;2024-01-15T02:36:08;100034.84;;;10.53;89.85
33414;BME280;60055;41.884;12.534;2024-01-15T02:38:33;100025.06;;;10.55;89.98
33414;BME280;60055;41.884;12.534;2024-01-15T02:40:59;100020.88;;;10.51;90.33
33414;BME280;60055;41.884;12.534;2024-01-15T02:43:25;100017.94;;;10.57;89.90
33414;BME280;60055;41.884;12.534;2024-01-15T02:45:50;100012.94;;;10.51;90.25
33414;BME280;60055;41.884;12.534;2024-01-15T02:48:22;100010.31;;;10.51;90.37
33414;BME280;60055;41.884;12.534;2024-01-15T02:50:58;100010.16;;;10.54;90.42
33414;BME280;60055;41.884;12.534;2024-01-15T02:53:23;99997.72;;;10.56;90.72
33414;BME280;60055;41.884;12.534;2024-01-15T02:55:49;99995.09;;;10.56;90.79
33414;BME280;60055;41.884;12.534;2024-01-15T02:58:14;99994.78;;;10.62;90.27
33414;BME280;60055;41.884;12.534;2024-01-15T03:00:40;99982.41;;;10.64;90.72
33414;BME280;60055;41.884;12.534;2024-01-15T03:03:06;99983.47;;;10.60;90.91
33414;BME280;60055;41.884;12.534;2024-01-15T03:05:31;99972.09;;;10.58;90.61
33414;BME280;60055;41.884;12.534;2024-01-15T03:07:57;99966.75;;;10.59;91.14
33414;BME280;60055;41.884;12.534;2024-01-15T03:10:23;99966.56;;;10.64;90.51
33414;BME280;60055;41.884;12.534;2024-01-15T03:12:48;99955.13;;;10.63;90.43
33414;BME280;60055;41.884;12.534;2024-01-15T03:15:14;99951.69;;;10.61;90.95
33414;BME280;60055;41.884;12.534;2024-01-15T03:17:41;99941.06;;;10.63;91.04
33414;BME280;60055;41.884;12.534;2024-01-15T03:20:08;99942.94;;;10.61;90.99
33414;BME280;60055;41.884;12.534;2024-01-15T03:22:34;99941.69;;;10.51;91.88
33414;BME280;60055;41.884;12.534;2024-01-15T03:24:59;99941.75;;;10.49;91.81
33414;BME280;60055;41.884;12.534;2024-01-15T03:27:25;99934.59;;;10.51;91.62
33414;BME280;60055;41.884;12.534;2024-01-15T03:29:51;99939.47;;;10.42;92.68
33414;BME280;60055;41.884;12.534;2024-01-15T03:32:17;99931.41;;;10.45;92.39
33414;BME280;60055;41.884;12.534;2024-01-15T03:34:42;99932.34;;;10.44;92.75
33414;BME280;60055;41.884;12.534;2024-01-15T03:37:08;99934.19;;;10.42;93.09
33414;BME280;60055;41.884;12.534;2024-01-15T03:39:33;99925.19;;;10.46;93.19
33414;BME280;60055;41.884;12.534;2024-01-15T03:41:59;99910.84;;;10.51;92.54
33414;BME280;60055;41.884;12.534;2024-01-15T03:44:25;99906.03;;;10.59;92.65
33414;BME280;60055;41.884;12.534;2024-01-15T03:46:50;99905.19;;;10.59;92.19
33414;BME280;60055;41.884;12.534;2024-01-15T03:49:16;99897.13;;;10.62;92.20
33414;BME280;60055;41.884;12.534;2024-01-15T03:51:42;99894.63;;;10.59;92.37
33414;BME280;60055;41.884;12.534;2024-01-15T03:54:10;99890.75;;;10.66;92.35
33414;BME280;60055;41.884;12.534;2024-01-15T03:56:35;99891.78;;;10.63;92.53
33414;BME280;60055;41.884;12.534;2024-01-15T03:59:01;99885.47;;;10.66;92.60
33414;BME280;60055;41.884;12.534;2024-01-15T04:01:26;99881.28;;;10.62;93.39
33414;BME280;60055;41.884;12.534;2024-01-15T04:03:52;99877.72;;;10.63;93.28
33414;BME280;60055;41.884;12.534;2024-01-15T04:06:20;99881.44;;;10.59;94.11
33414;BME280;60055;41.884;12.534;2024-01-15T04:08:46;99877.72;;;10.63;93.80
33414;BME280;60055;41.884;12.534;2024-01-15T04:11:11;99880.28;;;10.64;94.25
33414;BME280;60055;41.884;12.534;2024-01-15T04:13:37;99874.16;;;10.64;94.09
33414;BME280;60055;41.884;12.534;2024-01-15T04:16:03;99869.63;;;10.66;94.26
33414;BME280;60055;41.884;12.534;2024-01-15T04:18:28;99864.50;;;10.63;94.64
33414;BME280;60055;41.884;12.534;2024-01-15T04:20:54;99860.09;;;10.63;94.70
33414;BME280;60055;41.884;12.534;2024-01-15T04:23:20;99854.97;;;10.60;94.91
33414;BME280;60055;41.884;12.534;2024-01-15T04:25:53;99855.94;;;10.58;95.51
33414;BME280;60055;41.884;12.534;2024-01-15T04:28:19;99852.22;;;10.62;95.61
33414;BME280;60055;41.884;12.534;2024-01-15T04:30:44;99848.72;;;10.61;95.86
33414;BME280;60055;41.884;12.534;2024-01-15T04:33:10;99846.41;;;10.55;96.48
33414;BME280;60055;41.884;12.534;2024-01-15T04:35:37;99844.84;;;10.51;96.57
33414;BME280;60055;41.884;12.534;2024-01-15T04:38:02;99848.59;;;10.47;96.91
33414;BME280;60055;41.884;12.534;2024-01-15T04:40:28;99842.22;;;10.51;96.65
33414;BME280;60055;41.884;12.534;2024-01-15T04:42:54;99839.44;;;10.54;96.86
33414;BME280;60055;41.884;12.534;2024-01-15T04:45:32;99836.56;;;10.59;96.68
33414;BME280;60055;41.884;12.534;2024-01-15T04:47:57;99842.69;;;10.59;96.28
33414;BME280;60055;41.884;12.534;2024-01-15T04:50:34;99832.69;;;10.66;96.45
33414;BME280;60055;41.884;12.534;2024-01-15T04:53:08;99829.13;;;10.67;95.52
33414;BME280;60055;41.884;12.534;2024-01-15T04:55:40;99839.41;;;10.71;96.02
33414;BME280;60055;41.884;12.534;2024-01-15T04:58:05;99830.13;;;10.64;96.32
33414;BME280;60055;41.884;12.534;2024-01-15T05:00:31;99831.97;;;10.62;96.97
33414;BME280;60055;41.884;12.534;2024-01-15T05:02:56;99814.41;;;10.61;96.48
33414;BME280;60055;41.884;12.534;2024-01-15T05:05:22;99814.56;;;10.58;96.80
33414;BME280;60055;41.884;12.534;2024-01-15T05:07:51;99817.91;;;10.62;96.64
33414;BME280;60055;41.884;12.534;2024-01-15T05:10:16;99823.19;;;10.62;96.69
33414;BME280;60055;41.884;12.534;2024-01-15T05:12:42;99824.91;;;10.63;97.05
33414;BME280;60055;41.884;12.534;2024-01-15T05:15:08;99814.34;;;10.63;96.99
33414;BME280;60055;41.884;12.534;2024-01-15T05:17:39;99818.47;;;10.68;96.78
33414;BME280;60055;41.884;12.534;2024-01-15T05:20:08;99819.94;;;10.74;96.95
33414;BME280;60055;41.884;12.534;2024-01-15T05:22:34;99813.72;;;10.75;96.57
33414;BME280;60055;41.884;12.534;2024-01-15T05:25:12;99815.44;;;10.76;96.88
33414;BME280;60055;41.884;12.534;2024-01-15T05:27:38;99810.47;;;10.87;96.43
33414;BME280;60055;41.884;12.534;2024-01-15T05:30:03;99803.94;;;10.94;96.28
33414;BME280;60055;41.884;12.534;2024-01-15T05:32:29;99802.84;;;10.98;96.02
33414;BME280;60055;41.884;12.534;2024-01-15T05:35:14;99807.00;;;11.02;96.18
33414;BME280;60055;41.884;12.534;2024-01-15T05:37:54;99810.28;;;11.07;95.68
33414;BME280;60055;41.884;12.534;2024-01-15T05:40:43;99819.13;;;11.06;95.95
33414;BME280;60055;41.884;12.534;2024-01-15T05:43:08;99820.00;;;11.07;94.62
33414;BME280;60055;41.884;12.534;2024-01-15T05:45:34;99827.06;;;11.06;95.13
33414;BME280;60055;41.884;12.534;2024-01-15T05:48:12;99838.09;;;10.97;95.67
33414;BME280;60055;41.884;12.534;2024-01-15T05:50:41;99835.78;;;10.91;95.76
33414;BME280;60055;41.884;12.534;2024-01-15T05:53:07;99825.06;;;10.94;96.25
33414;BME280;60055;41.884;12.534;2024-01-15T05:55:47;99820.31;;;11.01;95.74
33414;BME280;60055;41.884;12.534;2024-01-15T05:58:24;99829.09;;;11.01;95.79
33414;BME280;60055;41.884;12.534;2024-01-15T06:01:12;99840.44;;;11.03;95.37
33414;BME280;60055;41.884;12.534;2024-01-15T06:03:38;99832.81;;;10.97;95.49
33414;BME280;60055;41.884;12.534;2024-01-15T06:06:04;99832.13;;;10.94;95.50
33414;BME280;60055;41.884;12.534;2024-01-15T06:12:24;99828.31;;;10.99;96.25
33414;BME280;60055;41.884;12.534;2024-01-15T06:15:18;99814.41;;;10.96;96.10
33414;BME280;60055;41.884;12.534;2024-01-15T06:18:19;99790.31;;;11.02;95.77
33414;BME280;60055;41.884;12.534;2024-01-15T06:20:47;99792.31;;;11.14;96.70
33414;BME280;60055;41.884;12.534;2024-01-15T06:23:22;99785.66;;;11.22;96.73
33414;BME280;60055;41.884;12.534;2024-01-15T06:25:56;99779.91;;;11.32;97.17
33414;BME280;60055;41.884;12.534;2024-01-15T06:28:40;99776.16;;;11.36;97.21
33414;BME280;60055;41.884;12.534;2024-01-15T06:31:32;99783.16;;;11.37;96.89
33414;BME280;60055;41.884;12.534;2024-01-15T06:34:10;99788.78;;;11.31;97.69
33414;BME280;60055;41.884;12.534;2024-01-15T06:37:08;99787.22;;;11.26;97.57
33414;BME280;60055;41.884;12.534;2024-01-15T06:39:42;99774.63;;;11.32;97.31
33414;BME280;60055;41.884;12.534;2024-01-15T06:42:17;99777.28;;;11.32;97.47
33414;BME280;60055;41.884;12.534;2024-01-15T06:45:05;99765.66;;;11.34;97.00
33414;BME280;60055;41.884;12.534;2024-01-15T06:47:37;99764.91;;;11.32;96.58
33414;BME280;60055;41.884;12.534;2024-01-15T06:50:02;99767.28;;;11.21;97.56
33414;BME280;60055;41.884;12.534;2024-01-15T06:52:30;99767.69;;;11.29;97.41
33414;BME280;60055;41.884;12.534;2024-01-15T06:54:55;99767.63;;;11.31;97.26
33414;BME280;60055;41.884;12.534;2024-01-15T06:57:20;99771.72;;;11.36;97.05
33414;BME280;60055;41.884;12.534;2024-01-15T06:59:46;99774.97;;;11.41;96.96
33414;BME280;60055;41.884;12.534;2024-01-15T07:02:11;99773.88;;;11.45;96.31
33414;BME280;60055;41.884;12.534;2024-01-15T07:04:37;99780.16;;;11.43;96.23
33414;BME280;60055;41.884;12.534;2024-01-15T07:07:02;99797.56;;;11.47;96.05
33414;BME280;60055;41.884;12.534;2024-01-15T07:09:28;99805.78;;;11.42;95.96
33414;BME280;60055;41.884;12.534;2024-01-15T07:11:54;99806.69;;;11.41;96.41
33414;BME280;60055;41.884;12.534;2024-01-15T07:14:22;99823.41;;;11.42;95.81
33414;BME280;60055;41.884;12.534;2024-01-15T07:16:47;99823.41;;;11.42;95.21
33414;BME280;60055;41.884;12.534;2024-01-15T07:19:12;99830.56;;;11.40;95.56
33414;BME280;60055;41.884;12.534;2024-01-15T07:21:38;99828.59;;;11.43;95.06
33414;BME280;60055;41.884;12.534;2024-01-15T07:24:05;99822.56;;;11.41;95.26
33414;BME280;60055;41.884;12.534;2024-01-15T07:26:30;99821.53;;;11.44;95.72
33414;BME280;60055;41.884;12.534;2024-01-15T07:28:56;99807.28;;;11.46;96.19
33414;BME280;60055;41.884;12.534;2024-01-15T07:31:22;99800.91;;;11.50;96.35
33414;BME280;60055;41.884;12.534;2024-01-15T07:33:47;99804.84;;;11.59;96.27
33414;BME280;60055;41.884;12.534;2024-01-15T07:36:16;99797.75;;;11.59;96.79
33414;BME280;60055;41.884;12.534;2024-01-15T07:38:41;99799.75;;;11.71;96.29
33414;BME280;60055;41.884;12.534;2024-01-15T07:41:07;99799.34;;;11.79;95.83
33414;BME280;60055;41.884;12.534;2024-01-15T07:43:33;99801.03;;;11.80;95.59
33414;BME280;60055;41.884;12.534;2024-01-15T07:45:59;99813.31;;;11.81;95.37
33414;BME280;60055;41.884;12.534;2024-01-15T07:48:27;99807.78;;;11.86;95.09
33414;BME280;60055;41.884;12.534;2024-01-15T07:50:52;99803.19;;;11.89;95.17
33414;BME280;60055;41.884;12.534;2024-01-15T07:53:18;99809.31;;;11.90;94.79
33414;BME280;60055;41.884;12.534;2024-01-15T07:55:44;99805.56;;;11.94;94.26
33414;BME280;60055;41.884;12.534;2024-01-15T07:58:11;99810.09;;;11.92;94.10
33414;BME280;60055;41.884;12.534;2024-01-15T08:00:36;99809.41;;;11.88;94.52
33414;BME280;60055;41.884;12.534;2024-01-15T08:03:02;99806.41;;;11.94;94.74
33414;BME280;60055;41.884;12.534;2024-01-15T08:05:28;99807.69;;;11.87;94.84
33414;BME280;60055;41.884;12.534;2024-01-15T08:07:53;99806.41;;;11.94;95.07
33414;BME280;60055;41.884;12.534;2024-01-15T08:10:19;99800.78;;;12.00;94.30
33414;BME280;60055;41.884;12.534;2024-01-15T08:12:44;99808.22;;;12.09;94.50
33414;BME280;60055;41.884;12.534;2024-01-15T08:15:09;99814.69;;;12.19;94.13
33414;BME280;60055;41.884;12.534;2024-01-15T08:17:35;99823.63;;;12.17;94.13
33414;BME280;60055;41.884;12.534;2024-01-15T08:20:00;99824.22;;;12.22;94.06
33414;BME280;60055;41.884;12.534;2024-01-15T08:22:26;99824.97;;;12.24;94.13
33414;BME280;60055;41.884;12.534;2024-01-15T08:24:52;99828.25;;;12.29;93.92
33414;BME280;60055;41.884;12.534;2024-01-15T08:27:18;99827.56;;;12.25;93.93
33414;BME280;60055;41.884;12.534;2024-01-15T08:29:45;99839.69;;;12.29;93.33
33414;BME280;60055;41.884;12.534;2024-01-15T08:32:10;99839.41;;;12.34;93.76
33414;BME280;60055;41.884;12.534;2024-01-15T08:34:39;99841.91;;;12.21;94.09
33414;BME280;60055;41.884;12.534;2024-01-15T08:37:04;99837.97;;;12.28;93.77
33414;BME280;60055;41.884;12.534;2024-01-15T08:39:30;99840.25;;;12.35;93.37
33414;BME280;60055;41.884;12.534;2024-01-15T08:41:55;99833.09;;;12.37;93.12
33414;BME280;60055;41.884;12.534;2024-01-15T08:44:21;99834.09;;;12.34;93.44
33414;BME280;60055;41.884;12.534;2024-01-15T08:46:46;99830.28;;;12.40;93.26
33414;BME280;60055;41.884;12.534;2024-01-15T08:49:11;99832.06;;;12.39;93.33
33414;BME280;60055;41.884;12.534;2024-01-15T08:51:37;99835.09;;;12.47;93.03
33414;BME280;60055;41.884;12.534;2024-01-15T08:54:04;99824.81;;;12.43;93.76
33414;BME280;60055;41.884;12.534;2024-01-15T08:56:30;99828.88;;;12.48;93.71
33414;BME280;60055;41.884;12.534;2024-01-15T08:58:55;99819.31;;;12.46;93.26
33414;BME280;60055;41.884;12.534;2024-01-15T09:01:21;99816.56;;;12.47;92.83
33414;BME280;60055;41.884;12.534;2024-01-15T09:03:46;99815.56;;;12.34;94.05
33414;BME280;60055;41.884;12.534;2024-01-15T09:06:13;99816.34;;;12.36;94.05
33414;BME280;60055;41.884;12.534;2024-01-15T09:08:39;99816.94;;;12.41;93.62
33414;BME280;60055;41.884;12.534;2024-01-15T09:11:04;99818.09;;;12.51;93.81
33414;BME280;60055;41.884;12.534;2024-01-15T09:13:29;99815.09;;;12.57;93.68
33414;BME280;60055;41.884;12.534;2024-01-15T09:15:56;99805.53;;;12.55;93.98
33414;BME280;60055;41.884;12.534;2024-01-15T09:18:21;99798.81;;;12.49;94.11
33414;BME280;60055;41.884;12.534;2024-01-15T09:20:46;99809.22;;;12.52;94.56
33414;BME280;60055;41.884;12.534;2024-01-15T09:23:12;99805.16;;;12.61;93.90
33414;BME280;60055;41.884;12.534;2024-01-15T09:25:37;99814.66;;;12.65;93.97
33414;BME280;60055;41.884;12.534;2024-01-15T09:28:03;99809.63;;;12.60;94.25
33414;BME280;60055;41.884;12.534;2024-01-15T09:30:28;99804.59;;;12.56;94.47
33414;BME280;60055;41.884;12.534;2024-01-15T09:32:54;99806.13;;;12.60;94.19
33414;BME280;60055;41.884;12.534;2024-01-15T09:35:19;99795.06;;;12.53;94.54
33414;BME280;60055;41.884;12.534;2024-01-15T09:37:45;99788.91;;;12.53;94.08
33414;BME280;60055;41.884;12.534;2024-01-15T09:40:13;99792.16;;;12.42;95.23
33414;BME280;60055;41.884;12.534;2024-01-15T09:42:42;99804.88;;;12.51;94.81
33414;BME280;60055;41.884;12.534;2024-01-15T09:45:08;99796.47;;;12.59;94.44
33414;BME280;60055;41.884;12.534;2024-01-15T09:47:36;99791.84;;;12.62;94.72
33414;BME280;60055;41.884;12.534;2024-01-15T09:50:02;99794.13;;;12.68;94.20
33414;BME280;60055;41.884;12.534;2024-01-15T09:52:30;99793.00;;;12.72;93.99
33414;BME280;60055;41.884;12.534;2024-01-15T09:54:57;99790.06;;;12.63;94.90
33414;BME280;60055;41.884;12.534;2024-01-15T09:57:22;99783.66;;;12.67;94.67
33414;BME280;60055;41.884;12.534;2024-01-15T09:59:48;99796.53;;;12.73;94.69
33414;BME280;60055;41.884;12.534;2024-01-15T10:02:14;99799.75;;;12.92;94.30
33414;BME280;60055;41.884;12.534;2024-01-15T10:04:43;99799.34;;;13.14;93.77
33414;BME280;60055;41.884;12.534;2024-01-15T10:07:12;99794.06;;;13.28;92.66
33414;BME280;60055;41.884;12.534;2024-01-15T10:09:41;99786.94;;;13.28;92.51
33414;BME280;60055;41.884;12.534;2024-01-15T10:12:07;99785.72;;;13.34;92.67
33414;BME280;60055;41.884;12.534;2024-01-15T10:14:34;99789.38;;;13.60;91.84
33414;BME280;60055;41.884;12.534;2024-01-15T10:16:59;99779.59;;;13.74;91.59
33414;BME280;60055;41.884;12.534;2024-01-15T10:19:25;99783.66;;;13.80;90.11
33414;BME280;60055;41.884;12.534;2024-01-15T10:21:50;99772.56;;;13.88;90.74
33414;BME280;60055;41.884;12.534;2024-01-15T10:24:16;99786.25;;;14.08;89.01
33414;BME280;60055;41.884;12.534;2024-01-15T10:26:42;99778.59;;;13.90;90.17
33414;BME280;60055;41.884;12.534;2024-01-15T10:29:08;99775.09;;;13.89;89.11
33414;BME280;60055;41.884;12.534;2024-01-15T10:31:33;99756.88;;;13.70;89.85
33414;BME280;60055;41.884;12.534;2024-01-15T10:34:10;99764.09;;;13.54;91.06
33414;BME280;60055;41.884;12.534;2024-01-15T10:36:39;99763.34;;;13.52;91.39
33414;BME280;60055;41.884;12.534;2024-01-15T10:39:06;99756.16;;;13.54;91.29
33414;BME280;60055;41.884;12.534;2024-01-15T10:41:32;99762.22;;;13.42;92.65
33414;BME280;60055;41.884;12.534;2024-01-15T10:43:58;99747.13;;;13.57;92.12
33414;BME280;60055;41.884;12.534;2024-01-15T10:46:24;99746.19;;;13.58;92.32
33414;BME280;60055;41.884;12.534;2024-01-15T10:48:50;99755.09;;;13.57;91.88
33414;BME280;60055;41.884;12.534;2024-01-15T10:51:15;99741.47;;;13.49;91.99
33414;BME280;60055;41.884;12.534;2024-01-15T10:53:42;99737.59;;;13.54;92.19
33414;BME280;60055;41.884;12.534;2024-01-15T10:56:09;99732.38;;;13.53;92.13
33414;BME280;60055;41.884;12.534;2024-01-15T10:58:36;99720.25;;;13.49;93.10
33414;BME280;60055;41.884;12.534;2024-01-15T11:01:04;99732.75;;;13.47;92.99
33414;BME280;60055;41.884;12.534;2024-01-15T11:03:30;99715.72;;;13.51;93.21
33414;BME280;60055;41.884;12.534;2024-01-15T11:05:55;99713.13;;;13.49;93.45
33414;BME280;60055;41.884;12.534;2024-01-15T11:08:21;99710.09;;;13.55;92.91
33414;BME280;60055;41.884;12.534;2024-01-15T11:10:50;99714.72;;;13.66;93.35
33414;BME280;60055;41.884;12.534;2024-01-15T11:16:05;99708.41;;;13.81;92.43
33414;BME280;60055;41.884;12.534;2024-01-15T11:18:40;99710.66;;;13.87;92.48
33414;BME280;60055;41.884;12.534;2024-01-15T11:27:03;99692.09;;;13.60;94.51
33414;BME280;60055;41.884;12.534;2024-01-15T11:34:54;99692.19;;;13.59;95.01
33414;BME280;60055;41.884;12.534;2024-01-15T11:37:23;99688.19;;;13.66;94.31
33414;BME280;60055;41.884;12.534;2024-01-15T11:39:51;99689.25;;;13.63;94.42
33414;BME280;60055;41.884;12.534;2024-01-15T11:42:17;99687.31;;;13.65;94.34
33414;BME280;60055;41.884;12.534;2024-01-15T11:44:44;99681.47;;;13.60;95.26
33414;BME280;60055;41.884;12.534;2024-01-15T11:47:11;99683.66;;;13.68;94.74
33414;BME280;60055;41.884;12.534;2024-01-15T11:52:24;99674.63;;;13.70;95.29
33414;BME280;60055;41.884;12.534;2024-01-15T11:57:40;99673.28;;;13.77;92.84
33414;BME280;60055;41.884;12.534;2024-01-15T12:00:05;99671.16;;;13.82;92.30
33414;BME280;60055;41.884;12.534;2024-01-15T12:02:32;99668.06;;;13.76;91.91
33414;BME280;60055;41.884;12.534;2024-01-15T12:04:57;99667.41;;;13.72;91.06
33414;BME280;60055;41.884;12.534;2024-01-15T12:07:23;99674.13;;;13.78;90.98
33414;BME280;60055;41.884;12.534;2024-01-15T12:09:48;99663.41;;;13.79;90.09
33414;BME280;60055;41.884;12.534;2024-01-15T12:12:22;99663.28;;;13.68;90.01
33414;BME280;60055;41.884;12.534;2024-01-15T12:14:50;99660.72;;;13.67;90.46
33414;BME280;60055;41.884;12.534;2024-01-15T12:17:16;99656.25;;;13.67;90.84
33414;BME280;60055;41.884;12.534;2024-01-15T12:19:42;99650.66;;;13.72;90.29
33414;BME280;60055;41.884;12.534;2024-01-15T12:22:08;99655.75;;;13.75;89.62
33414;BME280;60055;41.884;12.534;2024-01-15T12:24:34;99643.09;;;13.66;89.82
33414;BME280;60055;41.884;12.534;2024-01-15T12:27:00;99649.03;;;13.69;89.23
33414;BME280;60055;41.884;12.534;2024-01-15T12:29:26;99635.72;;;13.83;88.42
33414;BME280;60055;41.884;12.534;2024-01-15T12:31:53;99648.19;;;13.96;87.82
33414;BME280;60055;41.884;12.534;2024-01-15T12:34:18;99636.28;;;14.01;87.59
33414;BME280;60055;41.884;12.534;2024-01-15T12:36:46;99626.53;;;14.14;87.31
33414;BME280;60055;41.884;12.534;2024-01-15T12:39:12;99624.91;;;14.39;85.24
33414;BME280;60055;41.884;12.534;2024-01-15T12:41:38;99617.22;;;14.47;84.81
33414;BME280;60055;41.884;12.534;2024-01-15T12:44:04;99607.47;;;14.60;84.67
33414;BME280;60055;41.884;12.534;2024-01-15T12:46:30;99609.47;;;14.69;84.08
33414;BME280;60055;41.884;12.534;2024-01-15T12:48:56;99610.53;;;14.79;84.09
33414;BME280;60055;41.884;12.534;2024-01-15T12:51:25;99617.19;;;14.84;84.55
33414;BME280;60055;41.884;12.534;2024-01-15T12:53:51;99602.25;;;14.83;83.63
33414;BME280;60055;41.884;12.534;2024-01-15T12:56:17;99615.09;;;14.77;84.02
33414;BME280;60055;41.884;12.534;2024-01-15T12:58:42;99612.44;;;14.90;82.89
33414;BME280;60055;41.884;12.534;2024-01-15T13:01:08;99622.53;;;14.84;82.06
33414;BME280;60055;41.884;12.534;2024-01-15T13:03:33;99617.88;;;14.75;82.67
33414;BME280;60055;41.884;12.534;2024-01-15T13:05:59;99610.88;;;14.62;83.22
33414;BME280;60055;41.884;12.534;2024-01-15T13:08:24;99605.78;;;14.46;83.88
33414;BME280;60055;41.884;12.534;2024-01-15T13:10:52;99598.56;;;14.36;83.80